createdAt,value
2018-01-26T00:02:13.809Z,97.07
2018-01-26T00:04:41.221Z,96.91
2018-01-26T00:07:08.649Z,96.97
2018-01-26T00:09:36.061Z,96.67
2018-01-26T00:12:03.531Z,96.72
2018-01-26T00:14:30.957Z,96.80
2018-01-26T00:16:58.364Z,96.79
2018-01-26T00:19:25.780Z,96.92
2018-01-26T00:21:53.201Z,97.01
2018-01-26T00:24:20.613Z,97.01
2018-01-26T00:26:48.029Z,96.95
2018-01-26T00:29:15.457Z,96.98
2018-01-26T00:31:42.868Z,96.96
2018-01-26T00:34:10.282Z,96.82
2018-01-26T00:36:37.705Z,96.92
2018-01-26T00:39:05.112Z,96.91
2018-01-26T00:41:33.205Z,96.89
2018-01-26T00:44:00.620Z,96.45
2018-01-26T00:46:28.028Z,96.34
2018-01-26T00:48:55.445Z,96.58
2018-01-26T00:51:22.869Z,96.67
2018-01-26T00:53:50.305Z,96.70
2018-01-26T00:56:17.707Z,96.75
2018-01-26T00:58:45.125Z,96.94
2018-01-26T01:01:12.541Z,96.95
2018-01-26T01:03:39.952Z,96.98
2018-01-26T01:06:07.372Z,97.10
2018-01-26T01:08:34.784Z,97.04
2018-01-26T01:11:02.194Z,97.08
2018-01-26T01:13:29.609Z,96.94
2018-01-26T01:15:57.024Z,96.83
2018-01-26T01:18:24.432Z,96.79
2018-01-26T01:20:51.856Z,96.82
2018-01-26T01:23:19.264Z,96.87
2018-01-26T01:25:46.674Z,96.86
2018-01-26T01:28:14.098Z,96.73
2018-01-26T01:30:41.513Z,96.70
2018-01-26T01:33:08.963Z,96.77
2018-01-26T01:35:36.341Z,96.76
2018-01-26T01:38:03.744Z,96.74
2018-01-26T01:40:31.160Z,96.78
2018-01-26T01:42:58.585Z,96.92
2018-01-26T01:45:25.992Z,97.03
2018-01-26T01:47:53.402Z,97.07
2018-01-26T01:50:20.837Z,97.02
2018-01-26T01:52:48.244Z,96.96
2018-01-26T01:55:15.657Z,96.96
2018-01-26T01:57:43.085Z,96.97
2018-01-26T02:00:10.493Z,96.89
2018-01-26T02:02:37.901Z,97.01
2018-01-26T02:05:05.342Z,96.98
2018-01-26T02:07:32.756Z,97.06
2018-01-26T02:10:00.167Z,97.09
2018-01-26T02:12:27.590Z,97.07
2018-01-26T02:14:55.005Z,97.00
2018-01-26T02:17:22.429Z,97.07
2018-01-26T02:19:49.856Z,97.00
2018-01-26T02:22:17.278Z,97.12
2018-01-26T02:24:44.700Z,97.14
2018-01-26T02:27:12.104Z,97.15
2018-01-26T02:29:39.524Z,97.07
2018-01-26T02:32:06.937Z,97.05
2018-01-26T02:34:34.348Z,97.11
2018-01-26T02:37:01.769Z,97.12
2018-01-26T02:39:29.178Z,97.18
2018-01-26T02:41:56.621Z,97.19
2018-01-26T02:44:24.042Z,97.10
2018-01-26T02:46:51.464Z,97.09
2018-01-26T02:49:18.886Z,97.06
2018-01-26T02:51:46.300Z,96.97
2018-01-26T02:54:13.708Z,96.95
2018-01-26T02:56:41.121Z,96.83
2018-01-26T02:59:08.552Z,96.81
2018-01-26T03:01:35.969Z,96.83
2018-01-26T03:04:03.376Z,96.80
2018-01-26T03:06:30.809Z,96.74
2018-01-26T03:08:58.295Z,96.59
2018-01-26T03:11:25.721Z,96.69
2018-01-26T03:13:53.141Z,96.66
2018-01-26T03:16:20.563Z,96.73
2018-01-26T03:18:47.966Z,96.82
2018-01-26T03:21:15.372Z,96.94
2018-01-26T03:23:42.792Z,96.92
2018-01-26T03:26:10.205Z,96.86
2018-01-26T03:28:37.603Z,96.88
2018-01-26T03:31:05.013Z,96.81
2018-01-26T03:33:32.421Z,96.76
2018-01-26T03:35:59.837Z,96.90
2018-01-26T03:38:27.255Z,96.89
2018-01-26T03:40:54.672Z,96.78
2018-01-26T03:43:22.088Z,96.71
2018-01-26T03:45:49.504Z,96.66
2018-01-26T03:48:16.928Z,96.06
2018-01-26T03:50:44.340Z,96.24
2018-01-26T03:53:13.652Z,96.22
2018-01-26T03:55:41.076Z,96.32
2018-01-26T03:58:08.484Z,96.23
2018-01-26T04:00:35.908Z,96.06
2018-01-26T04:03:03.322Z,95.98
2018-01-26T04:05:30.733Z,95.95
2018-01-26T04:07:58.153Z,96.06
2018-01-26T04:10:25.565Z,96.12
2018-01-26T04:12:52.988Z,96.20
2018-01-26T04:15:20.420Z,96.23
2018-01-26T04:17:47.845Z,96.33
2018-01-26T04:20:15.253Z,96.53
2018-01-26T04:22:42.678Z,96.75
2018-01-26T04:25:10.094Z,96.83
2018-01-26T04:27:37.527Z,96.84
2018-01-26T04:30:04.945Z,96.75
2018-01-26T04:32:32.879Z,96.41
2018-01-26T04:35:00.303Z,96.44
2018-01-26T04:37:27.721Z,96.56
2018-01-26T04:39:55.136Z,96.53
2018-01-26T04:42:22.549Z,96.48
2018-01-26T04:44:49.956Z,96.52
2018-01-26T04:47:17.393Z,96.58
2018-01-26T04:49:44.800Z,96.65
2018-01-26T04:52:12.222Z,96.72
2018-01-26T04:54:39.629Z,96.81
2018-01-26T04:57:07.044Z,96.80
2018-01-26T04:59:34.472Z,96.79
2018-01-26T05:02:01.882Z,96.78
2018-01-26T05:04:29.300Z,96.80
2018-01-26T05:06:56.713Z,96.86
2018-01-26T05:09:24.118Z,96.93
2018-01-26T05:11:51.556Z,96.89
2018-01-26T05:14:18.974Z,96.93
2018-01-26T05:16:46.665Z,96.96
2018-01-26T05:19:14.081Z,97.02
2018-01-26T05:21:41.509Z,97.07
2018-01-26T05:24:08.924Z,97.10
2018-01-26T05:26:36.366Z,97.07
2018-01-26T05:29:03.800Z,97.04
2018-01-26T05:31:31.203Z,96.89
2018-01-26T05:33:58.609Z,96.84
2018-01-26T05:36:26.032Z,96.79
2018-01-26T05:38:53.442Z,96.81
2018-01-26T05:41:20.878Z,96.89
2018-01-26T05:43:48.278Z,96.91
2018-01-26T05:46:15.694Z,96.88
2018-01-26T05:48:43.107Z,96.96
2018-01-26T05:51:10.523Z,97.06
2018-01-26T05:53:37.952Z,96.97
2018-01-26T05:56:05.353Z,96.60
2018-01-26T05:58:32.774Z,96.75
2018-01-26T06:01:00.212Z,96.83
2018-01-26T06:03:27.614Z,96.80
2018-01-26T06:05:55.032Z,96.87
2018-01-26T06:08:22.433Z,96.94
2018-01-26T06:10:49.842Z,96.94
2018-01-26T06:13:17.252Z,96.83
2018-01-26T06:15:44.670Z,96.81
2018-01-26T06:18:12.091Z,96.98
2018-01-26T06:20:39.508Z,96.94
2018-01-26T06:23:06.917Z,96.73
2018-01-26T06:25:34.332Z,96.94
2018-01-26T06:28:01.737Z,96.92
2018-01-26T06:30:29.157Z,96.96
2018-01-26T06:32:56.568Z,96.69
2018-01-26T06:35:23.981Z,96.55
2018-01-26T06:37:51.401Z,96.51
2018-01-26T06:40:18.808Z,96.64
2018-01-26T06:42:46.232Z,96.75
2018-01-26T06:45:13.641Z,96.87
2018-01-26T06:47:41.068Z,96.99
2018-01-26T06:50:08.508Z,96.88
2018-01-26T06:52:35.958Z,96.63
2018-01-26T06:55:03.429Z,96.53
2018-01-26T06:57:30.893Z,96.57
2018-01-26T06:59:58.356Z,96.59
2018-01-26T07:02:25.760Z,96.85
2018-01-26T07:04:53.185Z,96.96
2018-01-26T07:07:20.606Z,96.99
2018-01-26T07:09:48.013Z,96.92
2018-01-26T07:12:15.425Z,97.02
2018-01-26T07:14:42.837Z,97.00
2018-01-26T07:17:10.265Z,97.13
2018-01-26T07:19:37.676Z,97.12
2018-01-26T07:22:05.085Z,97.18
2018-01-26T07:24:32.502Z,97.20
2018-01-26T07:26:59.985Z,97.13
2018-01-26T07:29:27.482Z,97.14
2018-01-26T07:31:54.909Z,97.17
2018-01-26T07:34:22.324Z,97.03
2018-01-26T07:36:49.737Z,96.93
2018-01-26T07:39:17.164Z,96.98
2018-01-26T07:41:44.581Z,97.08
2018-01-26T07:44:12.014Z,97.06
2018-01-26T07:46:39.420Z,96.91
2018-01-26T07:49:06.845Z,96.91
2018-01-26T07:51:34.266Z,96.99
2018-01-26T07:54:01.693Z,96.96
2018-01-26T07:56:29.122Z,97.00
2018-01-26T07:58:56.541Z,97.05
2018-01-26T08:01:24.831Z,97.13
2018-01-26T08:03:52.272Z,97.23
2018-01-26T08:06:19.672Z,97.27
2018-01-26T08:08:47.132Z,97.23
2018-01-26T08:11:14.550Z,97.17
2018-01-26T08:13:41.974Z,97.05
2018-01-26T08:16:09.537Z,96.95
2018-01-26T08:18:36.950Z,96.88
2018-01-26T08:21:04.560Z,96.96
2018-01-26T08:23:31.974Z,96.95
2018-01-26T08:25:59.400Z,96.91
2018-01-26T08:28:26.857Z,96.71
2018-01-26T08:30:54.259Z,96.52
2018-01-26T08:33:21.719Z,96.57
2018-01-26T08:35:49.123Z,96.56
2018-01-26T08:38:16.534Z,96.61
2018-01-26T08:40:43.952Z,96.12
2018-01-26T08:43:11.406Z,95.82
2018-01-26T08:45:44.523Z,95.68
2018-01-26T08:48:11.928Z,95.35
2018-01-26T08:50:39.343Z,95.30
2018-01-26T08:53:06.764Z,95.39
2018-01-26T08:55:34.176Z,95.47
2018-01-26T08:58:01.600Z,95.33
2018-01-26T09:00:29.012Z,95.23
2018-01-26T09:02:56.450Z,94.93
2018-01-26T09:05:23.853Z,93.72
2018-01-26T09:07:51.277Z,93.51
2018-01-26T09:10:18.693Z,93.67
2018-01-26T09:12:46.111Z,93.68
2018-01-26T09:15:13.526Z,93.85
2018-01-26T09:17:40.953Z,93.67
2018-01-26T09:20:08.349Z,93.63
2018-01-26T09:22:35.784Z,93.68
2018-01-26T09:25:03.206Z,93.51
2018-01-26T09:27:30.636Z,93.69
2018-01-26T09:29:58.052Z,93.78
2018-01-26T09:32:25.457Z,93.88
2018-01-26T09:34:52.877Z,93.76
2018-01-26T09:37:20.293Z,93.61
2018-01-26T09:39:47.700Z,93.60
2018-01-26T09:42:15.109Z,93.33
2018-01-26T09:44:42.512Z,93.50
2018-01-26T09:47:09.940Z,91.34
2018-01-26T09:49:37.353Z,91.52
2018-01-26T09:52:04.761Z,91.76
2018-01-26T09:54:32.202Z,92.01
2018-01-26T09:56:59.609Z,91.73
2018-01-26T09:59:27.056Z,91.89
2018-01-26T10:01:54.460Z,92.08
2018-01-26T10:04:21.867Z,91.65
2018-01-26T10:06:49.276Z,91.85
2018-01-26T10:09:16.693Z,92.23
2018-01-26T10:11:44.101Z,92.36
2018-01-26T10:14:11.536Z,92.37
2018-01-26T10:16:38.941Z,92.27
2018-01-26T10:19:06.357Z,91.23
2018-01-26T10:21:33.784Z,91.36
2018-01-26T10:24:01.203Z,91.69
2018-01-26T10:26:28.616Z,92.07
2018-01-26T10:28:56.030Z,92.00
2018-01-26T10:31:23.446Z,91.83
2018-01-26T10:33:50.873Z,91.71
2018-01-26T10:36:18.288Z,91.71
2018-01-26T10:38:45.704Z,91.38
2018-01-26T10:41:13.128Z,90.93
2018-01-26T10:43:42.463Z,90.50
2018-01-26T10:46:09.959Z,89.71
2018-01-26T10:48:47.869Z,89.34
2018-01-26T10:51:15.299Z,87.56
2018-01-26T10:53:42.714Z,87.63
2018-01-26T10:56:10.149Z,88.52
2018-01-26T10:58:37.569Z,88.85
2018-01-26T11:01:04.986Z,88.87
2018-01-26T11:03:32.423Z,88.58
2018-01-26T11:05:59.825Z,88.48
2018-01-26T11:08:27.249Z,88.72
2018-01-26T11:10:56.583Z,88.87
2018-01-26T11:13:23.985Z,88.93
2018-01-26T11:15:51.411Z,89.26
2018-01-26T11:18:18.816Z,88.97
2018-01-26T11:20:46.236Z,89.39
2018-01-26T11:23:13.656Z,88.97
2018-01-26T11:25:41.090Z,88.66
2018-01-26T11:28:08.509Z,88.61
2018-01-26T11:30:35.925Z,88.79
2018-01-26T11:33:03.341Z,88.87
2018-01-26T11:35:30.765Z,89.20
2018-01-26T11:37:58.184Z,87.00
2018-01-26T11:40:25.613Z,87.47
2018-01-26T11:42:53.024Z,87.00
2018-01-26T11:45:20.433Z,86.03
2018-01-26T11:47:47.861Z,87.14
2018-01-26T11:50:15.277Z,85.40
2018-01-26T11:52:42.703Z,86.44
2018-01-26T11:55:10.116Z,86.50
2018-01-26T11:57:37.533Z,86.35
2018-01-26T12:00:04.952Z,85.64
2018-01-26T12:02:32.381Z,85.42
2018-01-26T12:04:59.808Z,83.07
2018-01-26T12:07:27.233Z,83.70
2018-01-26T12:09:54.653Z,82.78
2018-01-26T12:12:22.128Z,83.26
2018-01-26T12:14:49.557Z,82.91
2018-01-26T12:17:16.997Z,82.31
2018-01-26T12:19:44.419Z,82.85
2018-01-26T12:22:11.940Z,82.96
2018-01-26T12:24:39.353Z,83.76
2018-01-26T12:27:06.781Z,83.07
2018-01-26T12:29:34.245Z,83.54
2018-01-26T12:32:01.661Z,84.12
2018-01-26T12:34:29.396Z,82.45
2018-01-26T12:36:56.834Z,82.04
2018-01-26T12:39:24.246Z,81.35
2018-01-26T12:41:51.678Z,80.38
2018-01-26T12:44:19.088Z,80.41
2018-01-26T12:46:46.538Z,81.59
2018-01-26T12:49:13.933Z,83.21
2018-01-26T12:51:41.340Z,83.40
2018-01-26T12:54:08.766Z,83.92
2018-01-26T12:56:36.178Z,81.89
2018-01-26T12:59:03.597Z,81.33
2018-01-26T13:01:31.021Z,82.26
2018-01-26T13:03:58.461Z,82.16
2018-01-26T13:06:25.885Z,82.02
2018-01-26T13:08:53.292Z,83.48
2018-01-26T13:11:20.712Z,83.04
2018-01-26T13:13:48.124Z,82.25
2018-01-26T13:16:15.566Z,81.84
2018-01-26T13:18:42.969Z,81.72
2018-01-26T13:21:10.385Z,80.41
2018-01-26T13:23:37.813Z,80.81
2018-01-26T13:26:05.221Z,81.33
2018-01-26T13:28:32.667Z,80.62
2018-01-26T13:31:00.076Z,79.42
2018-01-26T13:33:27.489Z,80.24
2018-01-26T13:35:54.905Z,80.59
2018-01-26T13:38:22.369Z,80.46
2018-01-26T13:40:49.749Z,80.59
2018-01-26T13:43:17.194Z,80.10
2018-01-26T13:45:45.208Z,80.99
2018-01-26T13:48:13.768Z,82.57
2018-01-26T13:50:42.340Z,82.73
2018-01-26T13:53:09.771Z,83.33
2018-01-26T13:55:37.182Z,83.77
2018-01-26T13:58:04.609Z,83.24
2018-01-26T14:00:32.168Z,82.93
2018-01-26T14:02:59.587Z,81.77
2018-01-26T14:05:27.093Z,80.73
2018-01-26T14:07:54.676Z,81.62
2018-01-26T14:10:22.056Z,81.36
2018-01-26T14:12:49.482Z,81.49
2018-01-26T14:15:16.933Z,82.78
2018-01-26T14:17:44.356Z,83.05
2018-01-26T14:20:11.784Z,83.13
2018-01-26T14:22:39.221Z,83.13
2018-01-26T14:25:06.637Z,82.34
2018-01-26T14:27:34.056Z,82.68
2018-01-26T14:30:01.496Z,82.70
2018-01-26T14:32:28.955Z,82.49
2018-01-26T14:34:56.407Z,81.95
2018-01-26T14:37:23.880Z,81.75
2018-01-26T14:39:51.249Z,81.90
2018-01-26T14:42:18.684Z,80.96
2018-01-26T14:44:46.118Z,80.69
2018-01-26T14:47:13.534Z,80.99
2018-01-26T14:49:41.387Z,81.43
2018-01-26T14:52:08.825Z,82.06
2018-01-26T14:54:36.271Z,82.57
2018-01-26T14:57:03.689Z,81.26
2018-01-26T14:59:31.141Z,82.80
2018-01-26T15:01:58.533Z,82.17
2018-01-26T15:04:25.941Z,82.63
2018-01-26T15:06:53.361Z,82.88
2018-01-26T15:09:20.770Z,83.10
2018-01-26T15:11:48.193Z,83.58
2018-01-26T15:14:15.609Z,82.95
2018-01-26T15:16:43.024Z,83.62
2018-01-26T15:19:10.477Z,83.47
2018-01-26T15:21:37.889Z,83.59
2018-01-26T15:24:05.296Z,83.67
2018-01-26T15:26:32.758Z,84.37
2018-01-26T15:29:00.165Z,84.24
2018-01-26T15:31:27.927Z,84.39
2018-01-26T15:33:56.133Z,84.73
2018-01-26T15:36:23.544Z,84.85
2018-01-26T15:38:50.955Z,84.90
2018-01-26T15:41:18.389Z,85.11
2018-01-26T15:43:45.784Z,85.36
2018-01-26T15:46:13.203Z,85.39
2018-01-26T15:48:40.621Z,85.54
2018-01-26T15:51:08.024Z,86.13
2018-01-26T15:53:35.465Z,86.04
2018-01-26T15:56:02.889Z,86.05
2018-01-26T15:58:37.048Z,86.30
2018-01-26T16:01:04.468Z,86.64
2018-01-26T16:03:31.869Z,87.37
2018-01-26T16:05:59.284Z,87.74
2018-01-26T16:08:26.702Z,87.94
2018-01-26T16:10:54.135Z,88.45
2018-01-26T16:13:29.383Z,88.84
2018-01-26T16:16:03.106Z,89.08
2018-01-26T16:18:30.521Z,89.32
2018-01-26T16:21:02.752Z,89.35
2018-01-26T16:23:30.172Z,89.57
2018-01-26T16:25:57.585Z,89.78
2018-01-26T16:28:25.020Z,90.03
2018-01-26T16:30:52.445Z,90.09
2018-01-26T16:33:19.869Z,90.30
2018-01-26T16:35:47.288Z,91.10
2018-01-26T16:38:14.717Z,91.27
2018-01-26T16:40:42.144Z,91.16
2018-01-26T16:43:09.570Z,91.23
2018-01-26T16:45:36.993Z,91.26
2018-01-26T16:48:04.411Z,91.22
2018-01-26T16:50:31.829Z,91.15
2018-01-26T16:52:59.264Z,91.37
2018-01-26T16:55:26.673Z,91.39
2018-01-26T16:57:54.080Z,92.17
2018-01-26T17:00:21.500Z,92.23
2018-01-26T17:02:48.924Z,92.59
2018-01-26T17:05:16.352Z,92.69
2018-01-26T17:07:43.764Z,92.79
2018-01-26T17:10:11.235Z,92.94
2018-01-26T17:12:38.613Z,93.20
2018-01-26T17:15:06.028Z,93.31
2018-01-26T17:17:33.454Z,93.13
2018-01-26T17:20:00.869Z,93.04
2018-01-26T17:22:28.297Z,92.96
2018-01-26T17:24:55.713Z,93.10
2018-01-26T17:27:23.120Z,93.49
2018-01-26T17:29:50.539Z,93.81
2018-01-26T17:32:17.954Z,93.45
2018-01-26T17:34:45.377Z,93.23
2018-01-26T17:37:12.789Z,92.86
2018-01-26T17:39:40.194Z,92.77
2018-01-26T17:42:07.646Z,92.71
2018-01-26T17:44:35.049Z,93.04
2018-01-26T17:47:02.496Z,93.24
2018-01-26T17:49:29.904Z,93.17
2018-01-26T17:51:57.322Z,92.97
2018-01-26T17:54:24.744Z,93.07
2018-01-26T17:56:52.165Z,93.37
2018-01-26T17:59:19.618Z,93.50
2018-01-26T18:01:47.020Z,93.96
2018-01-26T18:04:14.462Z,94.13
2018-01-26T18:06:41.892Z,93.72
2018-01-26T18:09:09.288Z,93.54
2018-01-26T18:14:10.489Z,94.32
2018-01-26T18:16:37.905Z,94.04
2018-01-26T18:19:05.336Z,94.12
2018-01-26T18:21:32.783Z,94.18
2018-01-26T18:24:00.192Z,94.22
2018-01-26T18:26:27.624Z,94.22
2018-01-26T18:28:55.041Z,94.23
2018-01-26T18:31:22.474Z,94.69
2018-01-26T18:33:49.881Z,94.79
2018-01-26T18:36:17.303Z,94.85
2018-01-26T18:38:44.713Z,94.81
2018-01-26T18:41:12.130Z,94.50
2018-01-26T18:43:39.583Z,94.07
2018-01-26T18:46:06.984Z,93.84
2018-01-26T18:48:34.393Z,93.77
2018-01-26T18:51:01.824Z,93.75
2018-01-26T18:53:29.232Z,93.61
2018-01-26T18:55:56.660Z,93.47
2018-01-26T18:58:24.064Z,93.40
2018-01-26T19:00:51.469Z,93.35
2018-01-26T19:03:18.889Z,93.26
2018-01-26T19:05:46.294Z,93.17
2018-01-26T19:08:13.721Z,93.32
2018-01-26T19:10:41.141Z,93.54
2018-01-26T19:13:09.353Z,93.76
2018-01-26T19:15:36.769Z,93.72
2018-01-26T19:18:04.190Z,93.70
2018-01-26T19:20:31.613Z,93.62
2018-01-26T19:22:59.021Z,93.69
2018-01-26T19:25:26.437Z,93.97
2018-01-26T19:27:54.068Z,94.14
2018-01-26T19:30:21.477Z,94.68
2018-01-26T19:32:48.909Z,96.64
2018-01-26T19:35:16.312Z,96.44
2018-01-26T19:37:43.731Z,95.89
2018-01-26T19:40:11.160Z,95.67
2018-01-26T19:42:38.581Z,95.32
2018-01-26T19:45:06.005Z,95.16
2018-01-26T19:47:33.414Z,95.12
2018-01-26T19:50:00.902Z,95.07
2018-01-26T19:52:28.310Z,95.56
2018-01-26T19:54:55.737Z,95.85
2018-01-26T19:57:23.197Z,96.63
2018-01-26T19:59:50.617Z,96.39
2018-01-26T20:02:18.037Z,96.81
2018-01-26T20:04:51.085Z,96.87
2018-01-26T20:07:29.116Z,96.63
2018-01-26T20:09:56.537Z,96.68
2018-01-26T20:12:23.960Z,96.52
2018-01-26T20:14:51.396Z,95.96
2018-01-26T20:17:18.843Z,95.63
2018-01-26T20:19:46.291Z,95.37
2018-01-26T20:22:13.692Z,95.14
2018-01-26T20:24:41.097Z,95.12
2018-01-26T20:27:08.513Z,95.07
2018-01-26T20:29:35.930Z,94.73
2018-01-26T20:32:03.366Z,94.59
2018-01-26T20:34:30.774Z,94.45
2018-01-26T20:36:58.193Z,94.19
2018-01-26T20:39:25.612Z,94.00
2018-01-26T20:41:53.031Z,94.07
2018-01-26T20:44:20.457Z,94.14
2018-01-26T20:46:47.885Z,94.12
2018-01-26T20:49:15.296Z,94.03
2018-01-26T20:51:42.731Z,94.05
2018-01-26T20:54:10.129Z,93.79
2018-01-26T20:56:37.553Z,93.73
2018-01-26T20:59:04.981Z,93.71
2018-01-26T21:01:32.388Z,93.51
2018-01-26T21:03:59.815Z,93.26
2018-01-26T21:06:27.214Z,93.13
2018-01-26T21:08:54.633Z,93.29
2018-01-26T21:11:22.045Z,93.77
2018-01-26T21:13:49.448Z,93.53
2018-01-26T21:16:16.876Z,93.54
2018-01-26T21:18:44.301Z,93.79
2018-01-26T21:21:11.710Z,93.96
2018-01-26T21:23:39.150Z,93.91
2018-01-26T21:26:06.561Z,93.79
2018-01-26T21:28:33.965Z,93.56
2018-01-26T21:31:01.386Z,93.46
2018-01-26T21:33:28.797Z,93.40
2018-01-26T21:35:56.212Z,93.50
2018-01-26T21:38:23.625Z,93.50
2018-01-26T21:40:51.028Z,93.37
2018-01-26T21:43:18.441Z,93.10
2018-01-26T21:45:45.844Z,92.76
2018-01-26T21:48:13.264Z,92.82
2018-01-26T21:50:40.729Z,92.81
2018-01-26T21:53:08.129Z,92.98
2018-01-26T21:55:35.545Z,93.33
2018-01-26T21:58:02.953Z,93.52
2018-01-26T22:00:30.384Z,93.65
2018-01-26T22:02:57.791Z,94.06
2018-01-26T22:05:25.210Z,95.19
2018-01-26T22:07:52.641Z,94.87
2018-01-26T22:10:20.036Z,94.59
2018-01-26T22:12:47.469Z,95.26
2018-01-26T22:15:14.881Z,96.13
2018-01-26T22:17:42.285Z,96.37
2018-01-26T22:20:09.704Z,96.77
2018-01-26T22:22:37.117Z,97.13
2018-01-26T22:25:04.545Z,97.15
2018-01-26T22:27:31.953Z,97.53
2018-01-26T22:29:59.374Z,97.74
2018-01-26T22:32:26.789Z,97.59
2018-01-26T22:34:54.192Z,97.39
2018-01-26T22:37:21.610Z,97.40
2018-01-26T22:39:49.013Z,96.89
2018-01-26T22:42:16.424Z,96.61
2018-01-26T22:44:43.844Z,96.63
2018-01-26T22:47:11.292Z,96.56
2018-01-26T22:49:38.680Z,96.28
2018-01-26T22:52:06.088Z,95.74
2018-01-26T22:54:33.505Z,95.43
2018-01-26T22:57:00.956Z,95.50
2018-01-26T22:59:28.391Z,95.58
2018-01-26T23:01:55.788Z,95.49
2018-01-26T23:04:23.205Z,95.62
2018-01-26T23:06:50.632Z,95.79
2018-01-26T23:09:18.053Z,96.24
2018-01-26T23:11:45.456Z,97.48
2018-01-26T23:14:12.872Z,98.05
2018-01-26T23:16:40.278Z,98.20
2018-01-26T23:19:07.713Z,98.31
2018-01-26T23:21:35.125Z,97.54
2018-01-26T23:24:02.537Z,97.05
2018-01-26T23:26:29.944Z,96.61
2018-01-26T23:28:57.356Z,96.38
2018-01-26T23:31:24.777Z,95.59
2018-01-26T23:33:52.186Z,94.90
2018-01-26T23:36:19.597Z,94.94
2018-01-26T23:38:47.009Z,95.04
2018-01-26T23:41:14.426Z,95.18
2018-01-26T23:43:41.856Z,94.74
2018-01-26T23:46:09.259Z,94.28
2018-01-26T23:48:36.664Z,93.88
2018-01-26T23:51:04.080Z,93.80
2018-01-26T23:53:31.493Z,93.91
2018-01-26T23:55:58.967Z,94.46
2018-01-26T23:58:26.333Z,94.40
